Zero, Nebraska
Current Conditions -  °F | °C
As of 12:53 AM on Saturday 29 Nov 2014 (Local Time) from KHSI Reporting Station
Clear Clear  
Wind Chill: 40°   Ceiling: Unl
Heat Index: 44°   Visibility: 10mi
Dew Point: 20°   Wind: 7mph
Humidity: 38%   Direction: 240°WSW
Pressure: 29.61"   Gusts: NA
Location:  40.4373°N, 98.4396°W
Report Text: KHSI 290653Z AUTO 24006KT 10SM CLR 07/M07 A2961 RMK AO2 SLP023 T00671067
Loading
Personal Weather Stations






























Interactive Weather Map New forecast layout! Learn more

10-Day Weather Forecast

Advertisements
Track Severe Weather on mobile